Bardwell, Texas
Current Conditions -  °F | °C
As of 6:15 PM on Thursday 27 Nov 2014 (Local Time) from KJWY Reporting Station
Clear Clear  
Wind Chill: 50°   Ceiling: Unl
Heat Index: 50°   Visibility: 10mi
Dew Point: 27°   Wind: 0mph
Humidity: 41%   Direction: NA
Pressure: 30.42"   Gusts: NA
Location:  32.27°N, 96.7°W
Report Text: KJWY 280015Z AUTO 00000KT 10SM CLR 10/M03 A3042 RMK AO2 T01021026
Loading
Personal Weather Stations






























Interactive Weather Map New forecast layout! Learn more

10-Day Weather Forecast

Advertisements
Track Severe Weather on mobile